sensor_id;sensor_type;location;lat;lon;timestamp;pressure;altitude;pressure_sealevel;temperature;humidity
71195;BME280;58908;51.426;7.714;2023-02-20T00:00:32;100802.22;;;4.65;100.00
71195;BME280;58908;51.426;7.714;2023-02-20T00:02:58;100793.69;;;4.56;100.00
71195;BME280;58908;51.426;7.714;2023-02-20T00:05:24;100793.66;;;4.57;100.00
71195;BME280;58908;51.426;7.714;2023-02-20T00:07:51;100798.06;;;4.54;100.00
71195;BME280;58908;51.426;7.714;2023-02-20T00:10:18;100790.25;;;4.52;100.00
71195;BME280;58908;51.426;7.714;2023-02-20T00:12:44;100785.06;;;4.51;100.00
71195;BME280;58908;51.426;7.714;2023-02-20T00:15:11;100789.41;;;4.50;100.00
71195;BME280;58908;51.426;7.714;2023-02-20T00:17:39;100790.38;;;4.45;100.00
71195;BME280;58908;51.426;7.714;2023-02-20T00:20:07;100781.66;;;4.44;100.00
71195;BME280;58908;51.426;7.714;2023-02-20T00:22:33;100780.88;;;4.41;100.00
71195;BME280;58908;51.426;7.714;2023-02-20T00:24:59;100771.31;;;4.40;100.00
71195;BME280;58908;51.426;7.714;2023-02-20T00:27:27;100770.44;;;4.39;100.00
71195;BME280;58908;51.426;7.714;2023-02-20T00:29:53;100763.50;;;4.37;100.00
71195;BME280;58908;51.426;7.714;2023-02-20T00:32:20;100756.56;;;4.37;100.00
71195;BME280;58908;51.426;7.714;2023-02-20T00:34:46;100757.38;;;4.41;100.00
71195;BME280;58908;51.426;7.714;2023-02-20T00:37:12;100746.03;;;4.40;100.00
71195;BME280;58908;51.426;7.714;2023-02-20T00:39:38;100738.28;;;4.36;100.00
71195;BME280;58908;51.426;7.714;2023-02-20T00:42:05;100741.78;;;4.35;100.00
71195;BME280;58908;51.426;7.714;2023-02-20T00:44:32;100743.41;;;4.42;100.00
71195;BME280;58908;51.426;7.714;2023-02-20T00:46:58;100744.22;;;4.45;100.00
71195;BME280;58908;51.426;7.714;2023-02-20T00:49:25;100734.66;;;4.44;100.00
71195;BME280;58908;51.426;7.714;2023-02-20T00:51:51;100731.19;;;4.45;100.00
71195;BME280;58908;51.426;7.714;2023-02-20T00:54:17;100736.34;;;4.47;100.00
71195;BME280;58908;51.426;7.714;2023-02-20T00:56:43;100736.28;;;4.50;100.00
71195;BME280;58908;51.426;7.714;2023-02-20T00:59:10;100738.91;;;4.50;100.00
71195;BME280;58908;51.426;7.714;2023-02-20T01:01:37;100729.31;;;4.50;100.00
71195;BME280;58908;51.426;7.714;2023-02-20T01:04:03;100726.56;;;4.57;100.00
71195;BME280;58908;51.426;7.714;2023-02-20T01:06:30;100723.06;;;4.58;100.00
71195;BME280;58908;51.426;7.714;2023-02-20T01:08:56;100730.91;;;4.60;100.00
71195;BME280;58908;51.426;7.714;2023-02-20T01:11:22;100728.34;;;4.57;100.00
71195;BME280;58908;51.426;7.714;2023-02-20T01:13:48;100732.59;;;4.63;100.00
71195;BME280;58908;51.426;7.714;2023-02-20T01:16:15;100718.69;;;4.60;100.00
71195;BME280;58908;51.426;7.714;2023-02-20T01:18:42;100711.63;;;4.65;100.00
71195;BME280;58908;51.426;7.714;2023-02-20T01:21:08;100708.06;;;4.69;100.00
71195;BME280;58908;51.426;7.714;2023-02-20T01:23:35;100709.78;;;4.70;100.00
71195;BME280;58908;51.426;7.714;2023-02-20T01:26:01;100701.09;;;4.70;100.00
71195;BME280;58908;51.426;7.714;2023-02-20T01:28:27;100692.22;;;4.77;100.00
71195;BME280;58908;51.426;7.714;2023-02-20T01:30:54;100681.69;;;4.81;100.00
71195;BME280;58908;51.426;7.714;2023-02-20T01:33:20;100679.06;;;4.83;100.00
71195;BME280;58908;51.426;7.714;2023-02-20T01:35:47;100693.94;;;4.81;100.00
71195;BME280;58908;51.426;7.714;2023-02-20T01:38:14;100683.53;;;4.78;100.00
71195;BME280;58908;51.426;7.714;2023-02-20T01:40:45;100686.94;;;4.81;100.00
71195;BME280;58908;51.426;7.714;2023-02-20T01:43:11;100673.91;;;4.80;100.00
71195;BME280;58908;51.426;7.714;2023-02-20T01:45:38;100669.53;;;4.80;100.00
71195;BME280;58908;51.426;7.714;2023-02-20T01:48:04;100672.88;;;4.87;100.00
71195;BME280;58908;51.426;7.714;2023-02-20T01:50:31;100666.81;;;4.86;100.00
71195;BME280;58908;51.426;7.714;2023-02-20T01:53:01;100670.25;;;4.87;100.00
71195;BME280;58908;51.426;7.714;2023-02-20T01:55:30;100664.13;;;4.88;100.00
71195;BME280;58908;51.426;7.714;2023-02-20T01:57:58;100668.53;;;4.86;100.00
71195;BME280;58908;51.426;7.714;2023-02-20T02:00:25;100662.34;;;4.91;100.00
71195;BME280;58908;51.426;7.714;2023-02-20T02:02:53;100653.41;;;5.01;100.00
71195;BME280;58908;51.426;7.714;2023-02-20T02:05:20;100647.28;;;5.02;100.00
71195;BME280;58908;51.426;7.714;2023-02-20T02:07:47;100649.78;;;5.08;100.00
71195;BME280;58908;51.426;7.714;2023-02-20T02:10:15;100643.59;;;5.12;100.00
71195;BME280;58908;51.426;7.714;2023-02-20T02:12:45;100636.72;;;5.08;100.00
71195;BME280;58908;51.426;7.714;2023-02-20T02:15:13;100635.84;;;5.08;100.00
71195;BME280;58908;51.426;7.714;2023-02-20T02:17:47;100634.06;;;5.10;100.00
71195;BME280;58908;51.426;7.714;2023-02-20T02:25:59;100627.81;;;5.17;100.00
71195;BME280;58908;51.426;7.714;2023-02-20T02:28:43;100609.59;;;5.14;100.00
71195;BME280;58908;51.426;7.714;2023-02-20T02:34:24;100588.59;;;5.17;100.00
71195;BME280;58908;51.426;7.714;2023-02-20T02:37:01;100594.53;;;5.23;100.00
71195;BME280;58908;51.426;7.714;2023-02-20T02:39:29;100587.59;;;5.21;100.00
71195;BME280;58908;51.426;7.714;2023-02-20T02:41:59;100572.78;;;5.21;100.00
71195;BME280;58908;51.426;7.714;2023-02-20T02:44:29;100567.56;;;5.21;100.00
71195;BME280;58908;51.426;7.714;2023-02-20T02:46:58;100568.38;;;5.25;100.00
71195;BME280;58908;51.426;7.714;2023-02-20T02:49:28;100568.38;;;5.25;100.00
71195;BME280;58908;51.426;7.714;2023-02-20T02:51:56;100559.84;;;5.15;100.00
71195;BME280;58908;51.426;7.714;2023-02-20T02:54:26;100570.47;;;5.09;100.00
71195;BME280;58908;51.426;7.714;2023-02-20T02:56:53;100570.44;;;5.11;100.00
71195;BME280;58908;51.426;7.714;2023-02-20T02:59:21;100568.66;;;5.11;100.00
71195;BME280;58908;51.426;7.714;2023-02-20T03:01:52;100566.03;;;5.13;100.00
71195;BME280;58908;51.426;7.714;2023-02-20T03:04:20;100569.56;;;5.10;100.00
71195;BME280;58908;51.426;7.714;2023-02-20T03:06:49;100572.28;;;5.06;100.00
71195;BME280;58908;51.426;7.714;2023-02-20T03:09:16;100571.47;;;5.02;100.00
71195;BME280;58908;51.426;7.714;2023-02-20T03:11:46;100568.84;;;5.04;100.00
71195;BME280;58908;51.426;7.714;2023-02-20T03:14:14;100574.97;;;5.01;100.00
71195;BME280;58908;51.426;7.714;2023-02-20T03:17:00;100579.50;;;4.93;100.00
71195;BME280;58908;51.426;7.714;2023-02-20T03:19:32;100565.81;;;4.82;100.00
71195;BME280;58908;51.426;7.714;2023-02-20T03:22:00;100548.91;;;4.98;100.00
71195;BME280;58908;51.426;7.714;2023-02-20T03:24:27;100558.50;;;4.98;100.00
71195;BME280;58908;51.426;7.714;2023-02-20T03:26:55;100549.84;;;4.96;100.00
71195;BME280;58908;51.426;7.714;2023-02-20T03:29:25;100553.16;;;5.02;100.00
71195;BME280;58908;51.426;7.714;2023-02-20T03:31:53;100552.28;;;5.03;100.00
71195;BME280;58908;51.426;7.714;2023-02-20T03:34:39;100547.81;;;5.08;100.00
71195;BME280;58908;51.426;7.714;2023-02-20T03:37:23;100542.50;;;5.13;100.00
71195;BME280;58908;51.426;7.714;2023-02-20T03:40:09;100542.53;;;5.10;100.00
71195;BME280;58908;51.426;7.714;2023-02-20T03:42:56;100536.38;;;5.14;100.00
71195;BME280;58908;51.426;7.714;2023-02-20T03:45:42;100539.94;;;5.10;100.00
71195;BME280;58908;51.426;7.714;2023-02-20T03:48:11;100537.53;;;5.01;100.00
71195;BME280;58908;51.426;7.714;2023-02-20T03:50:39;100535.69;;;5.04;100.00
71195;BME280;58908;51.426;7.714;2023-02-20T03:53:24;100528.59;;;5.11;100.00
71195;BME280;58908;51.426;7.714;2023-02-20T03:55:50;100532.16;;;5.07;100.00
71195;BME280;58908;51.426;7.714;2023-02-20T03:58:19;100527.00;;;5.04;100.00
71195;BME280;58908;51.426;7.714;2023-02-20T04:00:47;100533.06;;;5.04;100.00
71195;BME280;58908;51.426;7.714;2023-02-20T04:03:16;100534.66;;;5.13;100.00
71195;BME280;58908;51.426;7.714;2023-02-20T04:05:45;100536.44;;;5.11;100.00
71195;BME280;58908;51.426;7.714;2023-02-20T04:08:13;100530.47;;;5.04;100.00
71195;BME280;58908;51.426;7.714;2023-02-20T04:10:42;100527.81;;;5.07;100.00
71195;BME280;58908;51.426;7.714;2023-02-20T04:13:09;100528.81;;;5.02;100.00
71195;BME280;58908;51.426;7.714;2023-02-20T04:15:38;100529.66;;;5.02;100.00
71195;BME280;58908;51.426;7.714;2023-02-20T04:18:06;100531.31;;;5.06;100.00
71195;BME280;58908;51.426;7.714;2023-02-20T04:20:33;100532.16;;;5.07;100.00
71195;BME280;58908;51.426;7.714;2023-02-20T04:23:00;100529.66;;;5.02;100.00
71195;BME280;58908;51.426;7.714;2023-02-20T04:25:29;100525.38;;;5.00;100.00
71195;BME280;58908;51.426;7.714;2023-02-20T04:27:59;100530.63;;;4.98;100.00
71195;BME280;58908;51.426;7.714;2023-02-20T04:30:25;100529.59;;;5.05;100.00
71195;BME280;58908;51.426;7.714;2023-02-20T04:32:53;100531.34;;;5.03;100.00
71195;BME280;58908;51.426;7.714;2023-02-20T04:35:20;100531.34;;;5.03;100.00
71195;BME280;58908;51.426;7.714;2023-02-20T04:37:46;100529.59;;;5.05;100.00
71195;BME280;58908;51.426;7.714;2023-02-20T04:40:13;100522.59;;;5.06;100.00
71195;BME280;58908;51.426;7.714;2023-02-20T04:42:40;100516.44;;;5.08;100.00
71195;BME280;58908;51.426;7.714;2023-02-20T04:45:06;100517.38;;;5.04;100.00
71195;BME280;58908;51.426;7.714;2023-02-20T04:47:32;100515.56;;;5.08;100.00
71195;BME280;58908;51.426;7.714;2023-02-20T04:50:00;100515.44;;;5.14;100.00
71195;BME280;58908;51.426;7.714;2023-02-20T04:52:26;100515.34;;;5.18;100.00
71195;BME280;58908;51.426;7.714;2023-02-20T04:54:52;100505.81;;;5.16;100.00
71195;BME280;58908;51.426;7.714;2023-02-20T04:57:19;100501.38;;;5.19;100.00
71195;BME280;58908;51.426;7.714;2023-02-20T04:59:46;100487.59;;;5.13;100.00
71195;BME280;58908;51.426;7.714;2023-02-20T05:02:12;100490.09;;;5.17;100.00
71195;BME280;58908;51.426;7.714;2023-02-20T05:04:39;100484.78;;;5.20;100.00
71195;BME280;58908;51.426;7.714;2023-02-20T05:07:07;100480.34;;;5.24;100.00
71195;BME280;58908;51.426;7.714;2023-02-20T05:09:33;100475.94;;;5.24;100.00
71195;BME280;58908;51.426;7.714;2023-02-20T05:11:59;100476.84;;;5.23;100.00
71195;BME280;58908;51.426;7.714;2023-02-20T05:14:25;100472.50;;;5.24;100.00
71195;BME280;58908;51.426;7.714;2023-02-20T05:16:51;100475.09;;;5.24;100.00
71195;BME280;58908;51.426;7.714;2023-02-20T05:19:18;100475.25;;;5.18;100.00
71195;BME280;58908;51.426;7.714;2023-02-20T05:21:44;100477.06;;;5.14;100.00
71195;BME280;58908;51.426;7.714;2023-02-20T05:24:30;100477.66;;;5.25;100.00
71195;BME280;58908;51.426;7.714;2023-02-20T05:26:56;100464.66;;;5.24;100.00
71195;BME280;58908;51.426;7.714;2023-02-20T05:29:23;100470.72;;;5.24;100.00
71195;BME280;58908;51.426;7.714;2023-02-20T05:31:49;100466.25;;;5.29;100.00
71195;BME280;58908;51.426;7.714;2023-02-20T05:34:15;100464.59;;;5.25;100.00
71195;BME280;58908;51.426;7.714;2023-02-20T05:36:42;100459.41;;;5.24;100.00
71195;BME280;58908;51.426;7.714;2023-02-20T05:39:08;100462.06;;;5.22;100.00
71195;BME280;58908;51.426;7.714;2023-02-20T05:41:36;100460.31;;;5.23;100.00
71195;BME280;58908;51.426;7.714;2023-02-20T05:44:02;100456.53;;;5.34;100.00
71195;BME280;58908;51.426;7.714;2023-02-20T05:46:28;100453.19;;;5.28;100.00
71195;BME280;58908;51.426;7.714;2023-02-20T05:48:55;100460.06;;;5.32;100.00
71195;BME280;58908;51.426;7.714;2023-02-20T05:51:22;100454.94;;;5.27;100.00
71195;BME280;58908;51.426;7.714;2023-02-20T05:53:48;100451.50;;;5.25;100.00
71195;BME280;58908;51.426;7.714;2023-02-20T05:56:15;100450.66;;;5.25;100.00
71195;BME280;58908;51.426;7.714;2023-02-20T05:58:42;100448.84;;;5.28;100.00
71195;BME280;58908;51.426;7.714;2023-02-20T06:01:15;100441.06;;;5.25;100.00
71195;BME280;58908;51.426;7.714;2023-02-20T06:03:41;100440.94;;;5.30;100.00
71195;BME280;58908;51.426;7.714;2023-02-20T06:06:07;100438.28;;;5.31;100.00
71195;BME280;58908;51.426;7.714;2023-02-20T06:08:34;100424.34;;;5.31;100.00
71195;BME280;58908;51.426;7.714;2023-02-20T06:11:00;100432.25;;;5.29;100.00
71195;BME280;58908;51.426;7.714;2023-02-20T06:13:26;100426.97;;;5.31;100.00
71195;BME280;58908;51.426;7.714;2023-02-20T06:15:54;100419.94;;;5.33;100.00
71195;BME280;58908;51.426;7.714;2023-02-20T06:18:20;100428.63;;;5.35;100.00
71195;BME280;58908;51.426;7.714;2023-02-20T06:20:46;100423.31;;;5.38;100.00
71195;BME280;58908;51.426;7.714;2023-02-20T06:23:12;100437.31;;;5.35;100.00
71195;BME280;58908;51.426;7.714;2023-02-20T06:25:38;100437.28;;;5.37;100.00
71195;BME280;58908;51.426;7.714;2023-02-20T06:28:05;100439.03;;;5.36;100.00
71195;BME280;58908;51.426;7.714;2023-02-20T06:30:31;100432.97;;;5.34;100.00
71195;BME280;58908;51.426;7.714;2023-02-20T06:33:03;100439.13;;;5.32;100.00
71195;BME280;58908;51.426;7.714;2023-02-20T06:35:29;100419.13;;;5.31;100.00
71195;BME280;58908;51.426;7.714;2023-02-20T06:37:55;100419.91;;;5.34;100.00
71195;BME280;58908;51.426;7.714;2023-02-20T06:40:22;100433.09;;;5.30;100.00
71195;BME280;58908;51.426;7.714;2023-02-20T06:42:48;100433.09;;;5.30;100.00
71195;BME280;58908;51.426;7.714;2023-02-20T06:45:14;100421.81;;;5.28;100.00
71195;BME280;58908;51.426;7.714;2023-02-20T06:47:40;100433.91;;;5.32;100.00
71195;BME280;58908;51.426;7.714;2023-02-20T06:50:08;100435.59;;;5.34;100.00
71195;BME280;58908;51.426;7.714;2023-02-20T06:52:35;100441.59;;;5.39;100.00
71195;BME280;58908;51.426;7.714;2023-02-20T06:55:01;100442.41;;;5.41;100.00
71195;BME280;58908;51.426;7.714;2023-02-20T06:57:27;100445.03;;;5.41;100.00
71195;BME280;58908;51.426;7.714;2023-02-20T06:59:53;100459.03;;;5.39;100.00
71195;BME280;58908;51.426;7.714;2023-02-20T07:02:19;100458.16;;;5.38;100.00
71195;BME280;58908;51.426;7.714;2023-02-20T07:04:46;100466.09;;;5.35;100.00
71195;BME280;58908;51.426;7.714;2023-02-20T07:07:14;100475.72;;;5.35;100.00
71195;BME280;58908;51.426;7.714;2023-02-20T07:09:40;100489.72;;;5.31;100.00
71195;BME280;58908;51.426;7.714;2023-02-20T07:12:07;100503.69;;;5.31;100.00
71195;BME280;58908;51.426;7.714;2023-02-20T07:14:33;100504.50;;;5.33;100.00
71195;BME280;58908;51.426;7.714;2023-02-20T07:16:59;100494.00;;;5.35;100.00
71195;BME280;58908;51.426;7.714;2023-02-20T07:19:25;100500.97;;;5.36;100.00
71195;BME280;58908;51.426;7.714;2023-02-20T07:21:52;100501.66;;;5.42;100.00
71195;BME280;58908;51.426;7.714;2023-02-20T07:24:19;100504.28;;;5.42;100.00
71195;BME280;58908;51.426;7.714;2023-02-20T07:26:46;100505.84;;;5.49;100.00
71195;BME280;58908;51.426;7.714;2023-02-20T07:29:12;100509.31;;;5.51;100.00
71195;BME280;58908;51.426;7.714;2023-02-20T07:31:39;100503.97;;;5.54;100.00
71195;BME280;58908;51.426;7.714;2023-02-20T07:34:05;100507.59;;;5.49;100.00
71195;BME280;58908;51.426;7.714;2023-02-20T07:36:32;100498.78;;;5.53;100.00
71195;BME280;58908;51.426;7.714;2023-02-20T07:38:58;100497.97;;;5.51;100.00
71195;BME280;58908;51.426;7.714;2023-02-20T07:41:27;100488.31;;;5.53;100.00
71195;BME280;58908;51.426;7.714;2023-02-20T07:43:55;100487.47;;;5.52;100.00
71195;BME280;58908;51.426;7.714;2023-02-20T07:46:22;100490.78;;;5.59;100.00
71195;BME280;58908;51.426;7.714;2023-02-20T07:48:48;100482.97;;;5.57;100.00
71195;BME280;58908;51.426;7.714;2023-02-20T07:51:14;100492.59;;;5.57;100.00
71195;BME280;58908;51.426;7.714;2023-02-20T07:53:46;100489.00;;;5.59;100.00
71195;BME280;58908;51.426;7.714;2023-02-20T07:56:12;100496.03;;;5.57;100.00
71195;BME280;58908;51.426;7.714;2023-02-20T07:58:40;100498.34;;;5.69;100.00
71195;BME280;58908;51.426;7.714;2023-02-20T08:01:06;100509.81;;;5.65;100.00
71195;BME280;58908;51.426;7.714;2023-02-20T08:03:32;100514.22;;;5.63;100.00
71195;BME280;58908;51.426;7.714;2023-02-20T08:05:58;100512.22;;;5.73;100.00
71195;BME280;58908;51.426;7.714;2023-02-20T08:08:25;100516.56;;;6.07;100.00
71195;BME280;58908;51.426;7.714;2023-02-20T08:10:51;100509.19;;;6.52;100.00
71195;BME280;58908;51.426;7.714;2023-02-20T08:13:17;100516.22;;;6.50;100.00
71195;BME280;58908;51.426;7.714;2023-02-20T08:15:46;100515.13;;;6.87;100.00
71195;BME280;58908;51.426;7.714;2023-02-20T08:18:13;100515.09;;;6.58;100.00
71195;BME280;58908;51.426;7.714;2023-02-20T08:20:39;100511.69;;;6.85;100.00
71195;BME280;58908;51.426;7.714;2023-02-20T08:23:12;100516.91;;;6.56;100.00
71195;BME280;58908;51.426;7.714;2023-02-20T08:25:40;100504.44;;;6.64;100.00
71195;BME280;58908;51.426;7.714;2023-02-20T08:28:07;100505.28;;;6.36;100.00
71195;BME280;58908;51.426;7.714;2023-02-20T08:30:33;100509.41;;;6.44;100.00
71195;BME280;58908;51.426;7.714;2023-02-20T08:33:00;100514.16;;;6.90;100.00
71195;BME280;58908;51.426;7.714;2023-02-20T08:35:30;100502.34;;;6.46;100.00
71195;BME280;58908;51.426;7.714;2023-02-20T08:37:58;100499.69;;;6.48;100.00
71195;BME280;58908;51.426;7.714;2023-02-20T08:40:24;100505.81;;;6.77;100.00
71195;BME280;58908;51.426;7.714;2023-02-20T08:42:50;100500.28;;;7.65;100.00
71195;BME280;58908;51.426;7.714;2023-02-20T08:45:17;100505.13;;;8.03;100.00
71195;BME280;58908;51.426;7.714;2023-02-20T08:47:43;100496.38;;;8.27;100.00
71195;BME280;58908;51.426;7.714;2023-02-20T08:50:11;100486.28;;;7.66;100.00
71195;BME280;58908;51.426;7.714;2023-02-20T08:52:37;100498.06;;;7.02;100.00
71195;BME280;58908;51.426;7.714;2023-02-20T08:55:03;100491.06;;;6.73;100.00
71195;BME280;58908;51.426;7.714;2023-02-20T08:57:30;100490.41;;;6.94;100.00
71195;BME280;58908;51.426;7.714;2023-02-20T08:59:56;100487.16;;;7.41;100.00
71195;BME280;58908;51.426;7.714;2023-02-20T09:02:23;100481.19;;;7.62;100.00
71195;BME280;58908;51.426;7.714;2023-02-20T09:04:52;100482.09;;;7.61;100.00
71195;BME280;58908;51.426;7.714;2023-02-20T09:07:20;100490.91;;;7.84;100.00
71195;BME280;58908;51.426;7.714;2023-02-20T09:09:46;100471.31;;;8.65;100.00
71195;BME280;58908;51.426;7.714;2023-02-20T09:12:14;100476.69;;;7.90;100.00
71195;BME280;58908;51.426;7.714;2023-02-20T09:14:40;100471.69;;;7.32;100.00
71195;BME280;58908;51.426;7.714;2023-02-20T09:17:07;100471.38;;;7.15;100.00
71195;BME280;58908;51.426;7.714;2023-02-20T09:19:33;100466.44;;;7.32;100.00
71195;BME280;58908;51.426;7.714;2023-02-20T09:22:00;100471.44;;;7.39;100.00
71195;BME280;58908;51.426;7.714;2023-02-20T09:24:28;100465.59;;;7.04;100.00
71195;BME280;58908;51.426;7.714;2023-02-20T09:26:58;100462.03;;;7.06;100.00
71195;BME280;58908;51.426;7.714;2023-02-20T09:29:24;100466.19;;;6.86;100.00
71195;BME280;58908;51.426;7.714;2023-02-20T09:31:50;100466.81;;;6.67;100.00
71195;BME280;58908;51.426;7.714;2023-02-20T09:34:17;100470.81;;;6.49;100.00
71195;BME280;58908;51.426;7.714;2023-02-20T09:36:43;100480.63;;;6.72;100.00
71195;BME280;58908;51.426;7.714;2023-02-20T09:39:09;100463.28;;;6.68;100.00
71195;BME280;58908;51.426;7.714;2023-02-20T09:41:44;100473.44;;;6.49;100.00
71195;BME280;58908;51.426;7.714;2023-02-20T09:44:13;100462.94;;;6.49;100.00
71195;BME280;58908;51.426;7.714;2023-02-20T09:46:41;100459.66;;;6.43;100.00
71195;BME280;58908;51.426;7.714;2023-02-20T09:49:10;100466.34;;;6.53;100.00
71195;BME280;58908;51.426;7.714;2023-02-20T09:51:39;100466.06;;;6.62;100.00
71195;BME280;58908;51.426;7.714;2023-02-20T09:54:07;100471.50;;;6.56;100.00
71195;BME280;58908;51.426;7.714;2023-02-20T09:56:36;100467.47;;;6.44;100.00
71195;BME280;58908;51.426;7.714;2023-02-20T09:59:07;100469.78;;;6.26;100.00
71195;BME280;58908;51.426;7.714;2023-02-20T10:01:37;100476.75;;;6.25;100.00
71195;BME280;58908;51.426;7.714;2023-02-20T10:04:05;100480.81;;;6.37;100.00
71195;BME280;58908;51.426;7.714;2023-02-20T10:06:33;100464.97;;;6.41;100.00
71195;BME280;58908;51.426;7.714;2023-02-20T10:09:00;100469.72;;;6.27;100.00
71195;BME280;58908;51.426;7.714;2023-02-20T10:11:31;100467.88;;;6.31;100.00
71195;BME280;58908;51.426;7.714;2023-02-20T10:14:04;100460.22;;;6.23;100.00
71195;BME280;58908;51.426;7.714;2023-02-20T10:16:38;100465.50;;;6.52;100.00
71195;BME280;58908;51.426;7.714;2023-02-20T10:19:13;100460.31;;;6.49;100.00
71195;BME280;58908;51.426;7.714;2023-02-20T10:21:49;100465.22;;;6.61;100.00
71195;BME280;58908;51.426;7.714;2023-02-20T10:24:22;100468.56;;;6.66;100.00
71195;BME280;58908;51.426;7.714;2023-02-20T10:26:52;100460.53;;;6.43;100.00
71195;BME280;58908;51.426;7.714;2023-02-20T10:29:20;100460.19;;;6.54;100.00
71195;BME280;58908;51.426;7.714;2023-02-20T10:31:51;100466.84;;;6.65;100.00
71195;BME280;58908;51.426;7.714;2023-02-20T10:34:20;100455.56;;;6.63;100.00
71195;BME280;58908;51.426;7.714;2023-02-20T10:36:49;100457.75;;;6.77;100.00
71195;BME280;58908;51.426;7.714;2023-02-20T10:39:18;100460.66;;;6.68;100.00
71195;BME280;58908;51.426;7.714;2023-02-20T10:41:46;100455.56;;;6.63;100.00
71195;BME280;58908;51.426;7.714;2023-02-20T10:44:19;100451.66;;;6.76;100.00
71195;BME280;58908;51.426;7.714;2023-02-20T10:46:50;100447.50;;;6.69;100.00
71195;BME280;58908;51.426;7.714;2023-02-20T10:49:18;100440.44;;;6.71;100.00
71195;BME280;58908;51.426;7.714;2023-02-20T10:51:47;100448.22;;;6.74;100.00
71195;BME280;58908;51.426;7.714;2023-02-20T10:54:15;100436.72;;;6.78;100.00
71195;BME280;58908;51.426;7.714;2023-02-20T10:56:44;100437.16;;;6.92;100.00
71195;BME280;58908;51.426;7.714;2023-02-20T10:59:14;100449.13;;;7.01;100.00
71195;BME280;58908;51.426;7.714;2023-02-20T11:01:42;100443.53;;;6.84;100.00
71195;BME280;58908;51.426;7.714;2023-02-20T11:04:11;100438.25;;;6.85;100.00
71195;BME280;58908;51.426;7.714;2023-02-20T11:06:39;100445.25;;;6.85;100.00
71195;BME280;58908;51.426;7.714;2023-02-20T11:09:07;100424.50;;;6.79;100.00
71195;BME280;58908;51.426;7.714;2023-02-20T11:11:35;100423.63;;;6.78;100.00
71195;BME280;58908;51.426;7.714;2023-02-20T11:14:08;100419.00;;;6.86;100.00
71195;BME280;58908;51.426;7.714;2023-02-20T11:16:37;100408.50;;;6.86;100.00
71195;BME280;58908;51.426;7.714;2023-02-20T11:19:07;100406.88;;;6.82;100.00
71195;BME280;58908;51.426;7.714;2023-02-20T11:21:36;100404.63;;;6.97;100.00
71195;BME280;58908;51.426;7.714;2023-02-20T11:27:06;100376.38;;;7.05;100.00
71195;BME280;58908;51.426;7.714;2023-02-20T11:29:36;100361.09;;;7.18;100.00
71195;BME280;58908;51.426;7.714;2023-02-20T11:34:48;100335.84;;;7.40;100.00
71195;BME280;58908;51.426;7.714;2023-02-20T11:37:28;100324.81;;;7.78;100.00
71195;BME280;58908;51.426;7.714;2023-02-20T11:39:55;100318.13;;;7.69;100.00
71195;BME280;58908;51.426;7.714;2023-02-20T11:42:24;100318.00;;;7.72;100.00
71195;BME280;58908;51.426;7.714;2023-02-20T11:45:10;100334.16;;;7.62;100.00
71195;BME280;58908;51.426;7.714;2023-02-20T11:47:36;100353.53;;;7.58;100.00
71195;BME280;58908;51.426;7.714;2023-02-20T11:50:11;100363.84;;;7.64;100.00
71195;BME280;58908;51.426;7.714;2023-02-20T11:52:39;100365.56;;;7.65;100.00
71195;BME280;58908;51.426;7.714;2023-02-20T11:55:20;100370.97;;;7.60;100.00
71195;BME280;58908;51.426;7.714;2023-02-20T11:57:47;100373.78;;;7.54;100.00
71195;BME280;58908;51.426;7.714;2023-02-20T12:00:14;100375.69;;;7.51;100.00
71195;BME280;58908;51.426;7.714;2023-02-20T12:02:47;100380.81;;;7.54;100.00
71195;BME280;58908;51.426;7.714;2023-02-20T12:05:14;100394.00;;;7.52;100.00
71195;BME280;58908;51.426;7.714;2023-02-20T12:07:43;100383.56;;;7.51;100.00
71195;BME280;58908;51.426;7.714;2023-02-20T12:10:20;100396.25;;;7.63;100.00
71195;BME280;58908;51.426;7.714;2023-02-20T12:12:48;100388.75;;;7.52;100.00
71195;BME280;58908;51.426;7.714;2023-02-20T12:15:16;100392.66;;;7.41;100.00
71195;BME280;58908;51.426;7.714;2023-02-20T12:17:45;100390.66;;;7.23;100.00
71195;BME280;58908;51.426;7.714;2023-02-20T12:20:17;100389.13;;;7.16;100.00
71195;BME280;58908;51.426;7.714;2023-02-20T12:22:47;100408.88;;;7.27;100.00
71195;BME280;58908;51.426;7.714;2023-02-20T12:25:17;100411.91;;;7.15;100.00
71195;BME280;58908;51.426;7.714;2023-02-20T12:27:52;100403.38;;;7.09;100.00
71195;BME280;58908;51.426;7.714;2023-02-20T12:30:24;100420.94;;;7.07;100.00
71195;BME280;58908;51.426;7.714;2023-02-20T12:32:54;100429.31;;;7.18;100.00
71195;BME280;58908;51.426;7.714;2023-02-20T12:35:28;100426.19;;;7.07;100.00
71195;BME280;58908;51.426;7.714;2023-02-20T12:37:59;100409.72;;;7.02;100.00
71195;BME280;58908;51.426;7.714;2023-02-20T12:40:32;100421.22;;;6.98;100.00
71195;BME280;58908;51.426;7.714;2023-02-20T12:43:04;100431.88;;;6.94;100.00
71195;BME280;58908;51.426;7.714;2023-02-20T12:45:34;100424.00;;;6.94;100.00
71195;BME280;58908;51.426;7.714;2023-02-20T12:48:09;100402.28;;;6.89;100.00
71195;BME280;58908;51.426;7.714;2023-02-20T12:50:39;100390.84;;;6.91;100.00
71195;BME280;58908;51.426;7.714;2023-02-20T12:53:10;100379.16;;;7.01;100.00
71195;BME280;58908;51.426;7.714;2023-02-20T12:55:41;100382.53;;;7.04;100.00
71195;BME280;58908;51.426;7.714;2023-02-20T12:58:15;100375.63;;;7.02;100.00
71195;BME280;58908;51.426;7.714;2023-02-20T13:00:46;100365.03;;;7.05;100.00
71195;BME280;58908;51.426;7.714;2023-02-20T13:03:13;100337.22;;;6.99;100.00
71195;BME280;58908;51.426;7.714;2023-02-20T13:05:42;100332.22;;;6.94;100.00
71195;BME280;58908;51.426;7.714;2023-02-20T13:08:11;100326.34;;;7.11;100.00
71195;BME280;58908;51.426;7.714;2023-02-20T13:10:44;100326.16;;;7.16;100.00